createdAt,value
2023-03-29T00:01:09.178Z,18.9
2023-03-29T00:07:12.388Z,19
2023-03-29T00:12:48.258Z,18.9
2023-03-29T00:18:40.247Z,19
2023-03-29T00:24:31.869Z,18.9
2023-03-29T00:30:08.485Z,18.9
2023-03-29T00:36:00.666Z,18.9
2023-03-29T00:41:37.057Z,18.9
2023-03-29T00:46:58.133Z,18.9
2023-03-29T00:52:34.242Z,19
2023-03-29T00:58:10.804Z,19
2023-03-29T01:03:47.878Z,19
2023-03-29T01:09:08.477Z,19
2023-03-29T01:14:44.152Z,19
2023-03-29T01:20:20.798Z,19
2023-03-29T01:26:11.920Z,19
2023-03-29T01:32:03.664Z,19
2023-03-29T01:37:55.485Z,19
2023-03-29T01:43:16.109Z,19
2023-03-29T01:48:52.170Z,19
2023-03-29T01:54:44.419Z,19
2023-03-29T02:00:20.449Z,19
2023-03-29T02:06:13.094Z,19
2023-03-29T02:12:04.971Z,19
2023-03-29T02:17:56.549Z,19.3
2023-03-29T02:23:33.182Z,20.9
2023-03-29T02:29:09.538Z,23
2023-03-29T02:35:01.662Z,24.9
2023-03-29T02:40:37.956Z,26.8
2023-03-29T02:46:00.894Z,28.3
2023-03-29T02:51:37.710Z,29.3
2023-03-29T02:57:29.359Z,30.2
2023-03-29T03:03:06.235Z,31.1
2023-03-29T03:08:57.310Z,31.8
2023-03-29T03:14:48.634Z,32.5
2023-03-29T03:20:28.881Z,33.3
2023-03-29T03:26:05.485Z,34
2023-03-29T03:31:57.368Z,34.7
2023-03-29T03:37:49.513Z,34.9
2023-03-29T03:43:14.039Z,35
2023-03-29T03:48:50.558Z,35.1
2023-03-29T03:54:11.542Z,35.1
2023-03-29T04:00:03.395Z,35.1
2023-03-29T04:05:40.832Z,35.1
2023-03-29T04:11:32.967Z,35.1
2023-03-29T04:17:09.867Z,35.1
2023-03-29T04:23:03.118Z,35.1
2023-03-29T04:28:55.229Z,35.1
2023-03-29T04:34:49.800Z,35
2023-03-29T04:40:27.306Z,34.9
2023-03-29T04:46:20.031Z,34.8
2023-03-29T04:51:56.357Z,34.8
2023-03-29T04:57:46.799Z,34.7
2023-03-29T05:03:41.537Z,34.7
2023-03-29T05:09:35.073Z,34.6
2023-03-29T05:15:27.260Z,34.6
2023-03-29T05:21:20.125Z,34.6
2023-03-29T05:27:10.901Z,34.5
2023-03-29T05:32:46.777Z,34.5
2023-03-29T05:38:23.044Z,34.4
2023-03-29T05:43:51.357Z,34.4
2023-03-29T05:49:28.157Z,34.4
2023-03-29T05:55:20.319Z,34.3
2023-03-29T06:01:12.630Z,34.3
2023-03-29T06:07:17.187Z,34.2
2023-03-29T06:13:09.086Z,34.2
2023-03-29T06:19:01.228Z,34.1
2023-03-29T06:24:53.234Z,34.1
2023-03-29T06:30:47.563Z,34.1
2023-03-29T06:36:39.709Z,34
2023-03-29T06:42:05.323Z,33.9
2023-03-29T06:48:05.298Z,33.9
2023-03-29T06:53:40.905Z,33.8
2023-03-29T06:59:32.980Z,33.8
2023-03-29T07:04:54.981Z,42.2
2023-03-29T07:10:31.480Z,40.3
2023-03-29T07:16:25.039Z,38.7
2023-03-29T07:22:02.221Z,37.6
2023-03-29T07:27:51.707Z,37.1
2023-03-29T07:33:43.603Z,36.6
2023-03-29T07:39:20.796Z,36.2
2023-03-29T07:44:56.600Z,42.9
2023-03-29T07:50:47.693Z,43.1
2023-03-29T07:56:39.866Z,42.6
2023-03-29T08:02:34.771Z,42.2
2023-03-29T08:08:09.306Z,44.2
2023-03-29T08:13:47.338Z,44.7
2023-03-29T08:19:24.351Z,44.7
2023-03-29T08:25:10.420Z,45.8
2023-03-29T08:31:02.876Z,46.5
2023-03-29T08:36:55.277Z,47.2
2023-03-29T08:42:31.411Z,47.9
2023-03-29T08:48:14.210Z,48
2023-03-29T08:53:19.252Z,48.7
2023-03-29T08:58:40.215Z,49.3
2023-03-29T09:04:17.272Z,49.9
2023-03-29T09:09:38.937Z,50.4
2023-03-29T09:15:15.685Z,50.9
2023-03-29T09:20:53.487Z,51.4
2023-03-29T09:26:42.291Z,51.8
2023-03-29T09:31:48.088Z,52.2
2023-03-29T09:37:25.304Z,52.8
2023-03-29T09:43:16.644Z,53.4
2023-03-29T09:49:02.298Z,53.6
2023-03-29T09:54:51.257Z,53.9
2023-03-29T10:00:28.320Z,54.6
2023-03-29T10:06:05.639Z,53.1
2023-03-29T10:11:44.904Z,53.9
2023-03-29T10:17:31.985Z,54.5
2023-03-29T10:23:11.983Z,55.1
2023-03-29T10:28:34.830Z,55.3
2023-03-29T10:34:11.344Z,55.9
2023-03-29T10:39:47.302Z,56.3
2023-03-29T10:45:08.656Z,56.6
2023-03-29T10:50:46.030Z,57.3
2023-03-29T10:56:21.589Z,57.9
2023-03-29T11:01:43.175Z,58.3
2023-03-29T11:07:20.171Z,58.8
2023-03-29T11:13:06.441Z,59.2
2023-03-29T11:18:45.179Z,59.6
2023-03-29T11:23:50.811Z,59.9
2023-03-29T11:29:11.969Z,60.3
2023-03-29T11:34:49.306Z,60.4
2023-03-29T11:40:10.555Z,60.8
2023-03-29T11:45:46.561Z,61
2023-03-29T11:51:25.726Z,61.2
2023-03-29T11:56:46.363Z,61.4
2023-03-29T12:02:23.721Z,61.6
2023-03-29T12:08:02.238Z,61.8
2023-03-29T12:13:41.220Z,61.9
2023-03-29T12:19:01.959Z,62
2023-03-29T12:24:41.720Z,62.1
2023-03-29T12:30:18.097Z,62.2
2023-03-29T12:35:39.600Z,62.2
2023-03-29T12:41:32.221Z,62.2
2023-03-29T12:47:24.394Z,62.1
2023-03-29T12:53:16.613Z,61.9
2023-03-29T12:59:09.418Z,61.9
2023-03-29T13:04:46.675Z,61.8
2023-03-29T13:10:37.871Z,61.6
2023-03-29T13:16:29.740Z,60.9
2023-03-29T13:22:35.990Z,59.4
2023-03-29T13:28:27.134Z,58.6
2023-03-29T13:34:19.490Z,58.1
2023-03-29T13:39:56.163Z,57.4
2023-03-29T13:45:47.233Z,56.8
2023-03-29T13:51:55.050Z,56.2
2023-03-29T13:57:50.018Z,55.9
2023-03-29T14:03:41.564Z,55.5
2023-03-29T14:09:33.816Z,55
2023-03-29T14:15:32.335Z,54.4
2023-03-29T14:21:24.235Z,53.8
2023-03-29T14:27:16.667Z,53.2
2023-03-29T14:32:53.019Z,52.7
2023-03-29T14:38:45.470Z,52.1
2023-03-29T14:44:37.943Z,51.4
2023-03-29T14:50:29.494Z,48.2
2023-03-29T14:56:20.586Z,45.4
2023-03-29T15:02:13.206Z,43.6
2023-03-29T15:08:07.840Z,42.5
2023-03-29T15:14:08.396Z,41.6
2023-03-29T15:21:18.324Z,40.8
2023-03-29T15:26:54.163Z,40.2
2023-03-29T15:33:01.816Z,39.8
2023-03-29T15:39:06.271Z,39.3
2023-03-29T15:44:59.446Z,38.9
2023-03-29T15:50:51.006Z,38.5
2023-03-29T15:56:54.215Z,38.2
2023-03-29T16:02:46.732Z,37.9
2023-03-29T16:08:37.475Z,37.6
2023-03-29T16:14:16.602Z,37.4
2023-03-29T16:20:09.250Z,37.1
2023-03-29T16:25:59.868Z,36.9
2023-03-29T16:31:20.803Z,36.7
2023-03-29T16:37:13.986Z,36.5
2023-03-29T16:43:05.189Z,35.9
2023-03-29T16:48:42.498Z,35.6
2023-03-29T16:54:03.257Z,35.3
2023-03-29T16:59:54.323Z,35.1
2023-03-29T17:05:49.576Z,34.8
2023-03-29T17:11:42.484Z,34.5
2023-03-29T17:17:18.752Z,34.4
2023-03-29T17:23:10.864Z,34.2
2023-03-29T17:29:02.406Z,34.1
2023-03-29T17:34:54.113Z,33.9
2023-03-29T17:40:47.200Z,33.5
2023-03-29T17:46:39.548Z,32.9
2023-03-29T17:52:34.526Z,32.7
2023-03-29T17:58:26.848Z,32.6
2023-03-29T18:04:19.974Z,32.4
2023-03-29T18:10:10.862Z,32.4
2023-03-29T18:16:03.224Z,32.3
2023-03-29T18:21:54.817Z,32.3
2023-03-29T18:27:14.667Z,32.3
2023-03-29T18:33:07.365Z,32.2
2023-03-29T18:39:03.256Z,32.1
2023-03-29T18:44:54.613Z,32.1
2023-03-29T18:50:47.261Z,32.1
2023-03-29T18:56:41.324Z,32
2023-03-29T19:02:34.702Z,31.9
2023-03-29T19:08:12.376Z,31.4
2023-03-29T19:13:33.379Z,30.9
2023-03-29T19:19:24.905Z,30.2
2023-03-29T19:25:17.865Z,29.8
2023-03-29T19:31:09.727Z,29.6
2023-03-29T19:36:47.026Z,29.6
2023-03-29T19:42:23.930Z,29.1
2023-03-29T19:54:14.818Z,28.1
2023-03-29T20:00:07.463Z,27.9
2023-03-29T20:11:23.954Z,27.8
2023-03-29T20:17:31.626Z,27.7
2023-03-29T20:23:07.953Z,27.6
2023-03-29T20:28:59.633Z,27.6
2023-03-29T20:34:51.528Z,27.6
2023-03-29T20:40:47.552Z,27.5
2023-03-29T20:46:55.707Z,27.5
2023-03-29T20:52:31.625Z,27.5
2023-03-29T20:58:23.681Z,27.4
2023-03-29T21:03:59.830Z,27.4
2023-03-29T21:09:53.531Z,27.4
2023-03-29T21:15:48.497Z,27.4
2023-03-29T21:21:39.444Z,27.4
2023-03-29T21:27:15.512Z,27.4
2023-03-29T21:33:07.972Z,27.4
2023-03-29T21:38:59.892Z,27.4
2023-03-29T21:44:51.716Z,27.4
2023-03-29T21:50:44.075Z,27.4
2023-03-29T21:56:19.197Z,27.3
2023-03-29T22:01:56.000Z,27.3
2023-03-29T22:07:59.238Z,27.3
2023-03-29T22:13:50.913Z,27.3
2023-03-29T22:19:43.467Z,27.3
2023-03-29T22:25:35.526Z,27.3
2023-03-29T22:31:27.342Z,27.3
2023-03-29T22:37:20.020Z,27.3
2023-03-29T22:43:12.084Z,27.3
2023-03-29T22:49:04.058Z,27.3
2023-03-29T22:54:55.521Z,27.3
2023-03-29T23:00:32.485Z,27.3
2023-03-29T23:06:09.392Z,27.3
2023-03-29T23:12:00.134Z,27.3
2023-03-29T23:17:35.930Z,27.3
2023-03-29T23:23:26.467Z,27.3
2023-03-29T23:29:20.724Z,27.2
2023-03-29T23:35:12.526Z,27.2
2023-03-29T23:40:48.285Z,27.2
2023-03-29T23:46:41.265Z,27.2
2023-03-29T23:52:32.783Z,27.2
2023-03-29T23:58:23.585Z,27.2
